Nestor — V2FB3 — position and weather

sailwx.info

Track history (hours):
 
Tides and Currents Weather Stations Pressure Air Temp Water Temp Dewpoint Dewpoint Depression Visibility Wind Speed Wind Dir Waves Ship Positions

Nestor

Last reported at 2017-Apr-29 14:42 UTC. Time now 2017-Apr-30 05:23 UTC.
Position N 36°51' E 023°32'.

Length 88 m; draft 5.6 m.

Type: Cargo ship. MMSI: 305620000.

Date/timePositionNaut miles runAvg speedWind from/ knotsBaromVisibWave heightAir tempDewpointWater temp
2017-Apr-29 14:42N 36°51' E 023°32'6 8.4
2017-Apr-29 14:00N 36°56' E 023°36'4 8.3
2017-Apr-29 13:30N 36°59' E 023°38'4 8.6
2017-Apr-29 13:00N 37°03' E 023°41'4 8.7
2017-Apr-29 12:30N 37°07' E 023°44'5 9.0
2017-Apr-29 12:00N 37°11' E 023°47'5 9.1
2017-Apr-29 11:30N 37°15' E 023°50'5 9.4
2017-Apr-29 11:00N 37°19' E 023°53'5 9.5
2017-Apr-29 10:30N 37°23' E 023°56'5 9.3
2017-Apr-29 10:00N 37°27' E 023°59'5 9.1
2017-Apr-29 09:30N 37°31' E 024°02'165 8.8
2017-Apr-28 14:48N 39°52' E 025°51'3 9.0
2017-Apr-28 14:30N 39°55' E 025°53'148 7.0
2017-Apr-27 17:23N 40°26' E 029°02'3 0.1
2017-Apr-26 16:52N 40°25' E 029°05'2 2.2
2017-Apr-26 16:11N 40°26' E 029°04'1 3.1
2017-Apr-26 15:57N 40°26' E 029°03'1 1.8
2017-Apr-26 15:30N 40°26' E 029°02'25 6.2
2017-Apr-26 11:32N 40°51' E 028°57'  
Track history (hours):
 
Tides and Currents Weather Stations Pressure Air Temp Water Temp Dewpoint Dewpoint Depression Visibility Wind Speed Wind Dir Waves Ship Positions

Nestor

Last reported at 2017-Apr-29 14:42 UTC. Time now 2017-Apr-30 05:23 UTC.
Position N 36°51' E 023°32'.

Length 88 m; draft 5.6 m.

Type: Cargo ship. MMSI: 305620000.

Date/timePositionNaut miles runAvg speedWind from/ knotsBaromVisibWave heightAir tempDewpointWater temp
2017-Apr-29 14:42N 36°51' E 023°32'6 8.4
2017-Apr-29 14:00N 36°56' E 023°36'4 8.3
2017-Apr-29 13:30N 36°59' E 023°38'4 8.6
2017-Apr-29 13:00N 37°03' E 023°41'4 8.7
2017-Apr-29 12:30N 37°07' E 023°44'5 9.0
2017-Apr-29 12:00N 37°11' E 023°47'5 9.1
2017-Apr-29 11:30N 37°15' E 023°50'5 9.4
2017-Apr-29 11:00N 37°19' E 023°53'5 9.5
2017-Apr-29 10:30N 37°23' E 023°56'5 9.3
2017-Apr-29 10:00N 37°27' E 023°59'5 9.1
2017-Apr-29 09:30N 37°31' E 024°02'165 8.8
2017-Apr-28 14:48N 39°52' E 025°51'3 9.0
2017-Apr-28 14:30N 39°55' E 025°53'148 7.0
2017-Apr-27 17:23N 40°26' E 029°02'3 0.1
2017-Apr-26 16:52N 40°25' E 029°05'2 2.2
2017-Apr-26 16:11N 40°26' E 029°04'1 3.1
2017-Apr-26 15:57N 40°26' E 029°03'1 1.8
2017-Apr-26 15:30N 40°26' E 029°02'25 6.2
2017-Apr-26 11:32N 40°51' E 028°57'  

Dump ship's entire track history